臺北終端管制區 - 桃園北區雷達席

METAR RCTP 181500Z 16008KT 9999 -SHRA FEW010 FEW015CB BKN025 BKN050 25/25 Q1006 RETS RESHRA NOSIG RMK CB W-NW A2971 RA AMT 16.0MM=

站台狀態:Online
最後更新:2019-08-18 23:15:02